首页
METAR-TAF:

METAR-TAF

机场 :

亨德森, 内华达州, 美国

纬度: 35-58-35N, 经度: 115-07-58W, 海拔: 749米

当前天气观测

该预报发布于13分钟前的09:56 UTC
风速6节,风向南转南东
温度 2°C
湿度 51%
气压 1027 hPa
能見度: 16.1公里
天空无云

METAR: KHND 180956Z AUTO 16006KT 10SM CLR 02/M07 A3033 RMK AO2 SLP296 T00171072 FZRANO

时间: 02:09 (10:09 UTC)

预报

该预报发布于4小时和43分钟前的05:26 UTC
预报有效从18日的 06点(UTC)到 19日的 06点(UTC)
风速6节,风向西南
能見度: 10公里
多云层高于25000英尺
从 18日的 1900点(UTC)
风速6节,风向东北
能見度: 10公里
少量云层高于15000英尺
多云层高于25000英尺
从 19日的 0200点(UTC)
风速7节,风向
能見度: 10公里
少量云层高于15000英尺
多云层高于25000英尺

TAF: KHND 180526Z 1806/1906 22006KT P6SM BKN250 FM181900 04006KT P6SM FEW150 BKN250 FM190200 17007KT P6SM FEW150 BKN250

超过4000个机场的气象观测和天气预报(METAR&TAF报告)。

可查询的气象台以黄色和红色小点在地图上表示。

将鼠标移到小点上方,可查看气象台名称。

然后点击查看天气观测和预报。

如需切换地图:点击带黑十字的绿色按钮放大地图;点击带横线的绿色按钮缩小地图;或者点击绿色箭头查看邻近地区的地图。


METAR-TAF: